Istanbul, Turkey

4:52 PM EEST on August 21, 2014 (GMT +0300)
Ataturk | Change Station
CLOSE
Current Station
Airport
Location: Istanbul,
Elevation: 121 ft
Nearby Weather Stations

Elev 121 ft 40.98 °N, 28.81 °E | Updated 32 minutes ago

Partly Cloudy
Partly Cloudy
82 °F
Feels Like 85 °F
N
7
Wind Variable Wind from WSW

Today
High -- | Low -- °F
--% Chance of Precip.
Yesterday
High -- | Low -- °F
Precip. -- in
6:20 AM 7:54 PM
Waning Crescent, 14% visible
Pressure 29.98 in
Visibility 6.2 miles
Clouds Few 4000 ft
Heat Index 85 °F
Dew Point 68 °F
Humidity 62%
Rainfall 0.00 in
Snow Depth Not available.
UV 4 out of 12
Pollen Not available.
Air Quality Not available.
Flu Activity Not available.
METAR LTBA 211320Z 24006KT 200V260 9999 FEW040 28/20 Q1015 NOSIG RMK RWY17L 22007KT RWY05 25006KT RWY23 23006KT 200V260

More Conditions Fewer Conditions

Pressure 29.98 in
Visibility 6.2 miles
Clouds Few 4000 ft
Heat Index 85 °F
Dew Point 68 °F
Humidity 62%
Rainfall 0.00 in
Snow Depth Not available.
UV 4 out of 12
Pollen Not available.
Air Quality Not available.
Flu Activity Not available.
METAR LTBA 211320Z 24006KT 200V260 9999 FEW040 28/20 Q1015 NOSIG RMK RWY17L 22007KT RWY05 25006KT RWY23 23006KT 200V260

More Conditions Fewer Conditions

10-Day Weather Forecast

Almanac

Astronomy

Aug. 21, 2014 Rise Set
Actual Time 6:20 AM EEST 7:54 PM EEST
Civil Twilight 5:51 AM EEST 8:23 PM EEST
Nautical Twilight 5:16 AM EEST 8:58 PM EEST
Astronomical Twilight 4:38 AM EEST 9:35 PM EEST
Moon 2:32 AM EEST 5:10 PM EEST
Length of Visible Light 14h 32m
Length of Day
13h 34m
Tomorrow will be 2m 29s shorter.
Waning Crescent, 14% of the Moon is Illuminated
Today
Waning Crescent
Aug 25
New
Sep 2
First Quarter
Sep 8
Full
Sep 15
Last Quarter

Yesterday's Extremes

Country Highs Country Lows

Community

WunderPhotos

Upload Photos

1,745,918 photos uploaded!

WunderBlogs® & News

Nearby

Snow Depth

Not available.

Earthquake Activity

City Distance Mag. Time & Date
No recent earthquake activity has been reported nearby.
Minimum magnitude displayed is 2.5.

Coastal Water Temperatures

Place Temperature
No Stations Reporting

Nearby Weather Stations